Time;durP1;ratioP1;P1;durP2;ratioP2;P2;SDS_P1;SDS_P2;PMS_P1;PMS_P2;Temp;Humidity;BMP_temperature;BMP_pressure;BME280_temperature;BME280_humidity;BME280_pressure;Samples;Min_cycle;Max_cycle;Signal;HPM_P1;HPM_P2
2022/06/02 00:00:26;;;;;;;19.50;12.68;;;17.90;99.90;;;;;;5050547;28;20052;-75
2022/06/02 00:03:08;;;;;;;15.48;12.27;;;18.00;99.90;;;;;;5048352;28;20038;-75
2022/06/02 00:05:57;;;;;;;17.25;12.50;;;18.00;99.90;;;;;;5044048;28;20033;-75
2022/06/02 00:08:36;;;;;;;20.73;12.45;;;17.90;99.90;;;;;;5046955;28;20059;-75
2022/06/02 00:11:20;;;;;;;20.15;11.45;;;17.90;99.90;;;;;;5045986;28;20049;-76
2022/06/02 00:14:00;;;;;;;15.10;12.20;;;17.70;99.90;;;;;;5048391;28;20403;-75
2022/06/02 00:16:34;;;;;;;14.85;12.48;;;17.80;99.90;;;;;;5052558;28;20043;-76
2022/06/02 00:19:10;;;;;;;17.23;12.27;;;17.80;99.90;;;;;;5053610;28;20129;-75
2022/06/02 00:21:43;;;;;;;20.48;13.50;;;17.70;99.90;;;;;;5053647;28;20041;-75
2022/06/02 00:24:18;;;;;;;17.27;12.48;;;17.70;99.90;;;;;;5053654;28;20455;-75
2022/06/02 00:27:00;;;;;;;20.85;12.50;;;17.60;99.90;;;;;;5053878;28;20067;-75
2022/06/02 00:29:36;;;;;;;14.10;11.85;;;17.60;99.90;;;;;;5052735;28;20049;-75
2022/06/02 00:32:07;;;;;;;;;;;17.60;99.90;;;;;;5052651;28;20079;-75
2022/06/02 00:34:41;;;;;;;15.60;12.63;;;17.50;99.90;;;;;;5052004;28;19921;-75
2022/06/02 00:37:34;;;;;;;20.55;12.45;;;17.50;99.90;;;;;;5052756;28;20040;-76
2022/06/02 00:40:03;;;;;;;17.58;11.77;;;17.50;99.90;;;;;;5053557;28;20484;-76
2022/06/02 00:42:50;;;;;;;18.58;13.00;;;17.40;99.90;;;;;;5053289;28;20055;-75
2022/06/02 00:45:19;;;;;;;15.50;12.63;;;17.40;99.90;;;;;;5053197;28;20048;-75
2022/06/02 00:47:53;;;;;;;16.70;12.73;;;17.40;99.90;;;;;;5053550;28;20045;-76
2022/06/02 00:50:37;;;;;;;19.65;11.85;;;17.40;99.90;;;;;;5053251;28;20046;-76
2022/06/02 00:53:13;;;;;;;17.25;13.57;;;17.40;99.90;;;;;;5052102;28;20132;-76
2022/06/02 00:58:44;;;;;;;19.52;12.70;;;17.30;99.90;;;;;;5053392;28;20042;-76
2022/06/02 01:01:15;;;;;;;17.85;12.27;;;17.20;99.90;;;;;;5044278;28;20048;-76
2022/06/02 01:03:46;;;;;;;15.93;12.35;;;17.20;99.90;;;;;;5049374;28;20399;-76
2022/06/02 01:06:41;;;;;;;17.15;12.38;;;17.20;99.90;;;;;;5044669;28;20111;-75
2022/06/02 01:09:22;;;;;;;16.23;12.68;;;17.10;99.90;;;;;;5044457;28;20480;-76
2022/06/02 01:12:05;;;;;;;16.45;13.13;;;17.10;99.90;;;;;;5053400;28;20120;-76
2022/06/02 01:14:46;;;;;;;19.48;13.45;;;17.10;99.90;;;;;;5053447;28;20048;-75
2022/06/02 01:17:26;;;;;;;21.17;13.60;;;17.10;99.90;;;;;;5047903;28;20484;-75
2022/06/02 01:20:30;;;;;;;18.63;11.45;;;17.10;99.90;;;;;;5045567;28;20108;-75
2022/06/02 01:23:24;;;;;;;17.73;11.30;;;17.10;99.90;;;;;;5038633;28;20041;-75
2022/06/02 01:26:18;;;;;;;15.18;11.52;;;17.00;99.90;;;;;;5033540;28;20034;-75
2022/06/02 01:28:53;;;;;;;21.70;12.40;;;17.00;99.90;;;;;;5033628;28;20381;-76
2022/06/02 01:31:35;;;;;;;15.53;11.10;;;17.00;99.90;;;;;;5044745;28;20048;-75
2022/06/02 01:34:13;;;;;;;16.13;11.52;;;16.90;99.90;;;;;;5052322;28;20298;-76
2022/06/02 01:36:48;;;;;;;17.48;11.52;;;16.90;99.90;;;;;;5052406;28;20045;-76
2022/06/02 01:39:28;;;;;;;16.25;11.77;;;16.90;99.90;;;;;;5053415;28;20044;-76
2022/06/02 01:42:05;;;;;;;18.58;11.95;;;16.90;99.90;;;;;;5056390;28;20492;-75
2022/06/02 01:44:43;;;;;;;15.35;10.43;;;16.80;99.90;;;;;;5057531;28;20482;-75
2022/06/02 01:47:20;;;;;;;14.68;10.57;;;16.80;99.90;;;;;;5056356;28;20036;-75
2022/06/02 01:50:02;;;;;;;15.70;11.65;;;16.80;99.90;;;;;;5056668;28;20060;-77
2022/06/02 01:52:43;;;;;;;18.77;11.63;;;16.80;99.90;;;;;;5048462;28;20045;-75
2022/06/02 01:56:04;;;;;;;18.25;11.88;;;16.80;99.90;;;;;;5057685;28;20475;-75
2022/06/02 01:58:46;;;;;;;16.95;12.13;;;16.70;99.90;;;;;;4980091;28;20089;-75
2022/06/02 02:01:21;;;;;;;17.30;12.00;;;16.60;99.90;;;;;;5057055;28;20067;-75
2022/06/02 02:04:05;;;;;;;15.85;12.05;;;16.60;99.90;;;;;;5056365;28;20072;-75
2022/06/02 02:06:42;;;;;;;19.05;12.43;;;16.60;99.90;;;;;;5056416;28;20033;-75
2022/06/02 02:09:18;;;;;;;15.40;12.60;;;16.60;99.90;;;;;;5056738;28;20516;-75
2022/06/02 02:11:51;;;;;;;16.67;12.45;;;16.60;99.90;;;;;;5056170;28;20047;-75
2022/06/02 02:14:48;;;;;;;16.42;12.32;;;16.50;99.90;;;;;;5047882;28;20533;-75
2022/06/02 02:17:20;;;;;;;;;;;16.40;99.90;;;;;;5049614;28;20037;-75
2022/06/02 02:19:56;;;;;;;18.63;11.88;;;16.40;99.90;;;;;;5056240;28;19968;-75
2022/06/02 02:22:32;;;;;;;16.60;11.27;;;16.40;99.90;;;;;;5056198;28;20454;-75
2022/06/02 02:25:04;;;;;;;;;;;16.30;99.90;;;;;;5057052;28;20041;-75
2022/06/02 02:30:23;;;;;;;15.15;12.07;;;16.30;99.90;;;;;;5055078;28;20113;-77
2022/06/02 02:32:59;;;;;;;16.35;11.90;;;16.40;99.90;;;;;;5055567;28;20049;-76
2022/06/02 02:35:38;;;;;;;20.38;12.18;;;16.30;99.90;;;;;;5048971;28;20473;-76
2022/06/02 02:38:12;;;;;;;16.40;12.52;;;16.40;99.90;;;;;;5053210;28;20047;-76
2022/06/02 02:40:45;;;;;;;16.45;12.80;;;16.30;99.90;;;;;;5055679;28;20041;-76
2022/06/02 02:43:18;;;;;;;16.63;13.15;;;16.20;99.90;;;;;;5055652;28;20044;-76
2022/06/02 02:45:51;;;;;;;17.83;12.90;;;16.20;99.90;;;;;;5055688;28;20120;-76
2022/06/02 02:48:33;;;;;;;14.55;13.00;;;16.20;99.90;;;;;;5047313;28;20103;-76
2022/06/02 02:51:11;;;;;;;21.55;12.98;;;16.20;99.90;;;;;;5050640;28;20520;-76
2022/06/02 02:53:45;;;;;;;15.65;12.57;;;16.10;99.90;;;;;;5054746;28;20079;-76
2022/06/02 02:56:18;;;;;;;16.80;13.00;;;16.10;99.90;;;;;;5055486;28;20052;-76
2022/06/02 02:58:49;;;;;;;22.45;13.23;;;16.10;99.90;;;;;;5036190;28;20041;-77
2022/06/02 03:01:24;;;;;;;16.17;12.98;;;16.00;99.90;;;;;;5038275;28;20041;-76
2022/06/02 03:04:06;;;;;;;16.63;12.57;;;16.00;99.90;;;;;;5055565;28;20080;-77
2022/06/02 03:06:38;;;;;;;19.27;13.38;;;16.00;99.90;;;;;;5055235;28;20041;-76
2022/06/02 03:09:12;;;;;;;17.65;12.93;;;16.00;99.90;;;;;;5055707;28;20573;-77
2022/06/02 03:12:04;;;;;;;18.27;12.93;;;16.00;99.90;;;;;;5055789;28;20095;-76
2022/06/02 03:14:58;;;;;;;14.57;12.65;;;15.90;99.90;;;;;;5055610;28;20144;-76
2022/06/02 03:17:41;;;;;;;16.85;13.68;;;16.00;99.90;;;;;;5055247;28;20041;-76
2022/06/02 03:20:19;;;;;;;15.38;12.70;;;16.00;99.90;;;;;;5055461;28;20047;-76
2022/06/02 03:23:12;;;;;;;16.95;12.27;;;16.00;99.90;;;;;;5049528;28;20044;-75
2022/06/02 03:25:43;;;;;;;16.50;12.15;;;16.00;99.90;;;;;;5061900;28;20041;-76
2022/06/02 03:28:20;;;;;;;17.42;12.82;;;16.00;99.90;;;;;;5058506;28;20048;-76
2022/06/02 03:30:54;;;;;;;17.15;13.00;;;16.00;99.90;;;;;;5055966;28;20045;-76
2022/06/02 03:33:49;;;;;;;16.00;12.88;;;16.00;99.90;;;;;;5054527;28;20072;-77
2022/06/02 03:36:31;;;;;;;16.50;12.60;;;16.10;99.90;;;;;;5054976;28;20033;-76
2022/06/02 03:39:05;;;;;;;14.85;11.48;;;16.20;99.90;;;;;;5055045;28;20099;-76
2022/06/02 03:42:05;;;;;;;18.60;12.18;;;16.30;99.90;;;;;;5055437;28;20041;-76
2022/06/02 03:44:53;;;;;;;15.30;11.15;;;16.40;99.90;;;;;;5011167;28;20049;-76
2022/06/02 03:47:30;;;;;;;15.80;11.45;;;16.40;99.90;;;;;;5052966;28;20128;-76
2022/06/02 03:50:27;;;;;;;16.08;11.68;;;16.50;99.90;;;;;;5055240;28;20044;-76
2022/06/02 03:53:09;;;;;;;18.15;10.38;;;16.60;99.90;;;;;;5033102;28;20131;-76
2022/06/02 03:55:48;;;;;;;12.82;10.18;;;17.00;99.90;;;;;;5035291;28;20381;-76
2022/06/02 03:58:49;;;;;;;16.23;10.43;;;17.80;99.90;;;;;;5038994;28;20052;-76
2022/06/02 04:01:25;;;;;;;14.98;9.95;;;18.60;99.90;;;;;;5054338;28;20453;-76
2022/06/02 04:04:06;;;;;;;17.45;9.98;;;19.50;99.90;;;;;;5054507;28;20079;-76
2022/06/02 04:06:48;;;;;;;15.65;8.32;;;20.20;99.90;;;;;;5048987;28;20485;-75
2022/06/02 04:09:33;;;;;;;11.75;8.10;;;20.80;99.90;;;;;;5047902;28;20057;-75
2022/06/02 04:15:34;;;;;;;11.45;6.47;;;21.70;99.90;;;;;;5054220;28;20052;-75
2022/06/02 04:18:09;;;;;;;12.73;7.35;;;22.30;99.90;;;;;;5053608;28;20195;-76
2022/06/02 04:20:51;;;;;;;12.32;7.25;;;22.70;99.90;;;;;;5053751;28;20045;-76
2022/06/02 04:23:39;;;;;;;13.13;7.78;;;22.90;99.90;;;;;;5033937;28;20377;-76
2022/06/02 04:26:33;;;;;;;11.50;7.78;;;23.00;99.90;;;;;;5033851;28;20069;-78
2022/06/02 04:29:18;;;;;;;15.13;7.60;;;23.30;99.90;;;;;;5036019;28;20045;-77
2022/06/02 04:31:54;;;;;;;14.38;7.63;;;23.80;99.90;;;;;;5052732;28;20041;-75
2022/06/02 04:34:30;;;;;;;13.48;6.93;;;24.30;99.90;;;;;;5053309;28;20045;-75
2022/06/02 04:37:07;;;;;;;15.63;7.72;;;24.80;99.90;;;;;;5053023;28;20068;-75
2022/06/02 04:39:46;;;;;;;10.38;6.63;;;25.30;99.90;;;;;;5053815;28;20045;-76
2022/06/02 04:42:25;;;;;;;10.57;6.88;;;25.80;99.90;;;;;;5052801;28;20091;-75
2022/06/02 04:45:01;;;;;;;12.95;7.22;;;26.10;99.90;;;;;;5052179;28;20419;-76
2022/06/02 04:47:37;;;;;;;16.33;7.00;;;26.40;99.90;;;;;;5052331;28;20115;-77
2022/06/02 04:50:10;;;;;;;12.63;7.25;;;26.50;99.90;;;;;;5053589;28;20045;-76
2022/06/02 04:52:49;;;;;;;9.52;7.05;;;26.80;99.90;;;;;;5036483;28;20054;-76
2022/06/02 04:55:23;;;;;;;12.75;7.43;;;27.20;99.90;;;;;;5033902;28;20492;-76
2022/06/02 04:57:57;;;;;;;10.00;7.45;;;27.60;99.90;;;;;;5037227;28;20064;-77
2022/06/02 05:00:32;;;;;;;14.07;7.35;;;27.40;99.90;;;;;;5053825;28;20037;-76
2022/06/02 05:03:05;;;;;;;11.95;7.35;;;27.40;99.90;;;;;;5053078;28;20037;-77
2022/06/02 05:05:38;;;;;;;13.50;7.30;;;27.40;99.90;;;;;;5054618;28;20056;-77
2022/06/02 05:08:30;;;;;;;11.30;7.45;;;27.70;99.90;;;;;;5054796;28;20036;-77
2022/06/02 05:11:12;;;;;;;13.32;7.82;;;28.10;99.90;;;;;;5053514;28;20045;-77
2022/06/02 05:13:50;;;;;;;12.00;7.95;;;28.00;99.90;;;;;;5053935;28;20049;-78
2022/06/02 05:16:28;;;;;;;13.57;7.95;;;28.20;99.90;;;;;;5056694;28;20492;-76
2022/06/02 05:19:25;;;;;;;13.02;7.63;;;28.80;99.90;;;;;;5053568;28;20077;-77
2022/06/02 05:22:25;;;;;;;12.65;7.57;;;29.50;99.90;;;;;;5055045;28;20520;-76
2022/06/02 05:25:29;;;;;;;12.65;7.65;;;30.10;99.90;;;;;;5053962;28;20106;-76
2022/06/02 05:28:25;;;;;;;19.77;10.85;;;30.40;99.90;;;;;;5037105;28;20068;-75
2022/06/02 05:31:31;;;;;;;13.00;8.05;;;30.50;99.90;;;;;;5052314;28;20202;-75
2022/06/02 05:34:40;;;;;;;14.87;7.90;;;30.40;99.90;;;;;;5052360;28;20067;-76
2022/06/02 05:37:22;;;;;;;15.32;8.32;;;30.30;99.90;;;;;;5053480;28;20516;-76
2022/06/02 05:40:09;;;;;;;13.38;7.78;;;29.80;99.90;;;;;;5052585;28;20041;-76
2022/06/02 05:42:46;;;;;;;15.90;9.05;;;29.60;99.90;;;;;;5052106;28;20393;-76
2022/06/02 05:45:35;;;;;;;15.95;9.07;;;29.60;99.90;;;;;;5052355;28;20053;-76
2022/06/02 05:48:21;;;;;;;14.30;8.50;;;29.80;99.90;;;;;;5052286;28;20063;-76
2022/06/02 05:50:52;;;;;;;;;;;29.90;99.90;;;;;;5052753;28;20056;-76
2022/06/02 05:53:34;;;;;;;18.45;9.40;;;29.60;99.90;;;;;;5051158;28;19942;-76
2022/06/02 05:56:08;;;;;;;17.80;8.95;;;29.10;99.90;;;;;;5052533;28;20484;-76
2022/06/02 05:58:58;;;;;;;15.57;9.00;;;28.80;99.90;;;;;;5052384;28;20052;-76
2022/06/02 06:01:39;;;;;;;19.75;10.20;;;28.30;99.90;;;;;;5050878;28;20041;-76
2022/06/02 06:04:56;;;;;;;14.38;9.25;;;27.90;99.90;;;;;;5052465;28;20037;-76
2022/06/02 06:07:37;;;;;;;16.98;9.75;;;27.70;99.90;;;;;;5047782;28;20053;-76
2022/06/02 06:10:11;;;;;;;17.80;9.65;;;27.90;99.90;;;;;;5052494;28;20045;-76
2022/06/02 06:12:55;;;;;;;13.55;10.52;;;27.90;99.90;;;;;;5052332;28;20072;-75
2022/06/02 06:15:33;;;;;;;21.55;11.27;;;27.70;99.90;;;;;;5052162;28;20397;-75
2022/06/02 06:18:10;;;;;;;19.33;10.00;;;27.60;99.90;;;;;;5051679;28;20069;-75
2022/06/02 06:20:55;;;;;;;21.88;11.68;;;27.80;99.90;;;;;;5052413;28;20037;-75
2022/06/02 06:23:49;;;;;;;17.52;11.45;;;27.90;99.90;;;;;;5051946;28;20041;-75
2022/06/02 06:26:27;;;;;;;24.55;11.80;;;27.70;99.90;;;;;;5050773;28;20056;-77
2022/06/02 06:29:12;;;;;;;24.80;18.55;;;28.00;99.90;;;;;;5054763;28;20037;-76
2022/06/02 06:31:51;;;;;;;57.75;17.63;;;28.20;99.90;;;;;;5055105;28;20045;-76
2022/06/02 06:34:32;;;;;;;23.77;13.48;;;28.30;99.90;;;;;;5055644;28;20049;-76
2022/06/02 06:37:19;;;;;;;26.45;12.65;;;28.40;99.90;;;;;;5057057;28;20565;-77
2022/06/02 06:39:58;;;;;;;33.50;14.65;;;28.30;99.90;;;;;;5055949;28;20079;-77
2022/06/02 06:42:39;;;;;;;30.75;15.80;;;28.50;99.90;;;;;;5055788;28;20118;-77
2022/06/02 06:45:13;;;;;;;24.20;14.93;;;28.40;99.90;;;;;;5055355;28;20553;-77
2022/06/02 06:47:44;;;;;;;25.05;14.52;;;28.50;99.90;;;;;;5055521;28;20099;-77
2022/06/02 06:50:19;;;;;;;27.77;14.50;;;28.50;99.90;;;;;;5055671;28;20132;-77
2022/06/02 06:53:19;;;;;;;24.17;13.43;;;28.50;99.90;;;;;;5054238;28;20102;-77
2022/06/02 06:55:55;;;;;;;21.50;13.27;;;28.40;99.90;;;;;;5055594;28;20076;-77
2022/06/02 06:58:35;;;;;;;24.48;11.88;;;28.30;99.90;;;;;;5055312;28;20102;-77
2022/06/02 07:01:09;;;;;;;22.30;11.95;;;28.00;99.90;;;;;;5053612;28;20080;-77
2022/06/02 07:03:49;;;;;;;18.90;11.55;;;27.60;99.90;;;;;;5043931;28;20496;-77
2022/06/02 07:06:26;;;;;;;20.73;12.05;;;27.40;99.90;;;;;;5045268;28;20550;-76
2022/06/02 07:09:00;;;;;;;17.95;13.55;;;27.50;99.90;;;;;;5047385;28;20053;-76
2022/06/02 07:14:29;;;;;;;27.38;11.15;;;27.40;99.90;;;;;;5041620;28;20354;-76
2022/06/02 07:16:57;;;;;;;19.48;11.77;;;27.30;99.90;;;;;;5035367;28;20049;-74
2022/06/02 07:19:33;;;;;;;20.50;12.20;;;27.60;99.90;;;;;;5035237;28;20160;-74
2022/06/02 07:22:07;;;;;;;19.48;12.05;;;27.90;99.90;;;;;;5035342;28;20049;-76
2022/06/02 07:24:48;;;;;;;22.70;10.27;;;27.70;99.90;;;;;;5035031;28;20091;-76
2022/06/02 07:27:22;;;;;;;17.42;10.57;;;27.60;99.90;;;;;;5035201;28;20344;-76
2022/06/02 07:30:10;;;;;;;27.52;17.13;;;27.90;99.90;;;;;;5036291;28;20077;-75
2022/06/02 07:33:13;;;;;;;20.33;13.77;;;28.10;99.90;;;;;;5036478;28;20091;-75
2022/06/02 07:36:14;;;;;;;19.92;11.00;;;28.30;99.90;;;;;;5002196;28;20111;-76
2022/06/02 07:39:12;;;;;;;18.83;10.50;;;28.10;99.90;;;;;;5034706;28;20520;-76
2022/06/02 07:42:03;;;;;;;19.33;11.75;;;27.80;99.90;;;;;;5036072;28;20046;-76
2022/06/02 07:44:49;;;;;;;14.90;11.10;;;27.80;99.90;;;;;;5035000;28;20053;-76
2022/06/02 07:47:33;;;;;;;13.50;9.60;;;28.00;99.90;;;;;;5034926;28;20125;-76
2022/06/02 07:50:09;;;;;;;25.85;14.32;;;28.20;99.90;;;;;;5033917;28;20578;-76
2022/06/02 07:52:57;;;;;;;21.20;12.15;;;28.30;99.90;;;;;;5034931;28;20049;-76
2022/06/02 07:55:32;;;;;;;22.40;11.52;;;28.50;99.90;;;;;;5034673;28;20048;-76
2022/06/02 07:58:20;;;;;;;;;;;28.80;99.90;;;;;;5035123;28;20038;-76
2022/06/02 08:00:57;;;;;;;14.95;8.30;;;28.90;99.90;;;;;;5034397;28;19928;-76
2022/06/02 08:03:54;;;;;;;13.02;9.05;;;28.80;99.90;;;;;;5034146;28;20099;-76
2022/06/02 08:06:35;;;;;;;14.30;8.50;;;28.80;99.90;;;;;;5040765;28;20112;-77
2022/06/02 08:09:30;;;;;;;17.65;8.55;;;28.60;99.90;;;;;;5050893;28;20527;-76
2022/06/02 08:12:04;;;;;;;12.07;7.80;;;28.20;99.90;;;;;;5065386;28;20052;-75
2022/06/02 08:14:41;;;;;;;17.25;8.30;;;28.20;99.90;;;;;;5054075;28;20420;-77
2022/06/02 08:17:20;;;;;;;12.57;7.50;;;28.40;99.90;;;;;;5053882;28;20554;-78
2022/06/02 08:20:03;;;;;;;14.68;8.43;;;28.40;99.90;;;;;;5048141;28;20542;-79
2022/06/02 08:22:46;;;;;;;13.65;7.90;;;28.30;99.90;;;;;;5041706;28;20191;-77
2022/06/02 08:25:14;;;;;;;14.77;8.45;;;28.40;99.90;;;;;;5051310;28;20482;-77
2022/06/02 08:28:13;;;;;;;15.93;10.52;;;28.80;99.90;;;;;;5053513;28;20483;-77
2022/06/02 08:30:46;;;;;;;17.10;8.68;;;28.90;99.90;;;;;;5054024;28;20042;-77
2022/06/02 08:33:35;;;;;;;12.73;7.25;;;29.30;99.90;;;;;;5053510;28;20052;-77
2022/06/02 08:36:14;;;;;;;13.10;8.00;;;29.40;99.90;;;;;;5053480;28;20040;-77
2022/06/02 08:39:25;;;;;;;11.85;7.45;;;29.60;99.90;;;;;;5053587;28;20033;-78
2022/06/02 08:42:53;;;;;;;15.57;10.73;;;29.80;99.90;;;;;;5052699;28;20065;-77
2022/06/02 08:45:43;;;;;;;11.88;7.53;;;29.70;99.90;;;;;;5042970;28;20496;-76
2022/06/02 08:49:01;;;;;;;12.98;6.97;;;29.70;99.90;;;;;;5035872;28;20099;-76
2022/06/02 08:52:16;;;;;;;21.30;12.55;;;30.00;99.90;;;;;;5006123;28;20044;-78
2022/06/02 08:55:44;;;;;;;14.30;7.63;;;30.10;99.90;;;;;;5052025;28;20065;-78
2022/06/02 08:58:44;;;;;;;12.65;8.05;;;30.20;99.90;;;;;;5054285;28;20029;-79
2022/06/02 09:01:27;;;;;;;16.65;8.40;;;30.20;99.90;;;;;;5027016;28;20452;-79
2022/06/02 09:04:35;;;;;;;14.93;9.73;;;30.20;99.90;;;;;;5046352;28;20561;-78
2022/06/02 09:07:41;;;;;;;16.10;9.75;;;30.10;99.90;;;;;;5036005;28;20053;-78
2022/06/02 09:10:46;;;;;;;13.68;9.80;;;30.40;99.90;;;;;;5051793;28;20067;-78
2022/06/02 09:13:46;;;;;;;18.00;9.60;;;30.10;99.90;;;;;;5054495;28;20041;-78
2022/06/02 09:16:21;;;;;;;11.43;7.47;;;29.90;99.90;;;;;;5046896;28;20106;-81
2022/06/02 09:19:19;;;;;;;13.07;7.55;;;29.90;99.90;;;;;;5049493;28;20041;-80
2022/06/02 09:22:13;;;;;;;13.00;8.15;;;30.10;99.90;;;;;;5053745;28;20076;-77
2022/06/02 09:24:50;;;;;;;14.23;7.47;;;30.50;99.90;;;;;;5054046;28;20041;-79
2022/06/02 09:27:53;;;;;;;12.20;9.82;;;30.80;99.90;;;;;;5051879;28;20048;-77
2022/06/02 09:30:30;;;;;;;14.73;10.15;;;31.20;99.90;;;;;;5051364;28;20037;-77
2022/06/02 09:33:35;;;;;;;22.25;9.43;;;31.40;99.90;;;;;;5053444;28;20037;-78
2022/06/02 09:36:26;;;;;;;18.35;11.40;;;31.00;99.90;;;;;;5054666;28;20048;-80
2022/06/02 09:39:09;;;;;;;13.25;8.50;;;30.80;99.90;;;;;;5055540;28;20049;-78
2022/06/02 09:41:57;;;;;;;13.00;8.35;;;31.00;99.90;;;;;;5053894;28;20068;-77
2022/06/02 09:44:29;;;;;;;15.05;7.90;;;30.90;99.90;;;;;;5059119;28;20057;-77
2022/06/02 09:47:21;;;;;;;14.00;8.23;;;30.50;99.90;;;;;;5052778;28;20129;-77
2022/06/02 09:50:16;;;;;;;16.75;9.55;;;30.40;99.90;;;;;;5051166;28;20116;-77
2022/06/02 09:53:26;;;;;;;16.70;8.95;;;30.40;99.90;;;;;;5051971;28;20081;-79
2022/06/02 09:56:16;;;;;;;15.65;10.52;;;30.40;99.90;;;;;;5032689;28;20541;-78
2022/06/02 09:58:57;;;;;;;19.70;11.60;;;30.40;99.90;;;;;;5051112;28;20087;-78
2022/06/02 10:01:56;;;;;;;14.23;8.70;;;30.60;99.90;;;;;;5054900;28;20067;-80
2022/06/02 10:04:49;;;;;;;9.30;7.95;;;30.80;99.90;;;;;;5058533;28;20071;-79
2022/06/02 10:07:49;;;;;;;14.13;8.52;;;30.60;99.90;;;;;;5058426;28;20052;-79
2022/06/02 10:10:39;;;;;;;14.73;9.20;;;31.20;99.90;;;;;;5056204;28;20045;-78
2022/06/02 10:13:34;;;;;;;13.38;7.30;;;31.20;99.90;;;;;;5057628;28;20061;-78
2022/06/02 10:16:36;;;;;;;13.60;8.38;;;30.70;99.90;;;;;;5050557;28;20049;-77
2022/06/02 10:19:29;;;;;;;13.95;8.05;;;30.10;99.90;;;;;;5037410;28;20063;-78
2022/06/02 10:22:05;;;;;;;12.48;8.93;;;30.10;99.90;;;;;;5057562;28;20487;-78
2022/06/02 10:25:01;;;;;;;13.80;7.90;;;30.20;99.90;;;;;;5057579;28;20385;-78
2022/06/02 10:28:04;;;;;;;14.70;9.10;;;30.20;99.90;;;;;;5070281;28;20045;-78
2022/06/02 10:31:09;;;;;;;11.68;7.85;;;30.60;99.90;;;;;;5033404;28;20111;-78
2022/06/02 10:34:18;;;;;;;11.93;9.30;;;30.50;99.90;;;;;;5048444;28;20044;-78
2022/06/02 10:37:16;;;;;;;10.80;6.90;;;30.50;99.90;;;;;;5030853;28;20535;-78
2022/06/02 10:40:18;;;;;;;10.07;6.57;;;30.50;99.90;;;;;;5049874;28;20044;-78
2022/06/02 10:43:32;;;;;;;17.55;8.07;;;30.60;99.90;;;;;;5022848;28;20053;-79
2022/06/02 10:46:27;;;;;;;13.52;7.07;;;30.60;99.90;;;;;;5053413;28;20421;-79
2022/06/02 10:49:10;;;;;;;10.93;6.65;;;30.90;99.90;;;;;;5057273;28;20446;-78
2022/06/02 10:52:13;;;;;;;11.57;7.22;;;30.80;99.90;;;;;;5043540;28;20135;-78
2022/06/02 10:55:20;;;;;;;12.88;6.70;;;31.10;99.90;;;;;;5023624;28;20053;-78
2022/06/02 10:58:39;;;;;;;8.80;5.80;;;31.20;99.90;;;;;;4984411;28;20450;-78
2022/06/02 11:02:01;;;;;;;12.50;5.60;;;31.00;99.90;;;;;;5037979;28;20405;-78
2022/06/02 11:05:01;;;;;;;10.07;5.75;;;31.00;99.90;;;;;;5050192;28;20115;-78
2022/06/02 11:10:43;;;;;;;13.40;7.05;;;30.70;99.90;;;;;;5056664;28;20043;-76
2022/06/02 11:13:42;;;;;;;12.88;6.68;;;30.80;99.90;;;;;;5056742;28;20040;-76
2022/06/02 11:16:31;;;;;;;8.50;5.80;;;31.10;99.90;;;;;;5062023;28;20048;-76
2022/06/02 11:19:41;;;;;;;9.25;5.80;;;31.30;99.90;;;;;;5083783;28;20111;-76
2022/06/02 11:22:47;;;;;;;9.45;5.25;;;31.20;99.90;;;;;;5095889;28;20040;-75
2022/06/02 11:25:49;;;;;;;8.95;5.18;;;30.90;99.90;;;;;;5078161;28;20097;-76
2022/06/02 11:29:04;;;;;;;24.23;13.88;;;30.40;99.90;;;;;;5096225;28;20043;-76
2022/06/02 11:31:51;;;;;;;24.92;9.15;;;30.40;99.90;;;;;;5096567;28;20464;-76
2022/06/02 11:34:59;;;;;;;13.23;7.00;;;30.70;99.90;;;;;;5096375;28;20071;-76
2022/06/02 11:37:45;;;;;;;11.48;6.80;;;30.80;99.90;;;;;;5096439;28;20090;-77
2022/06/02 11:40:39;;;;;;;13.35;6.60;;;31.00;99.90;;;;;;5085608;28;20060;-76
2022/06/02 11:43:17;;;;;;;15.63;6.03;;;31.20;99.90;;;;;;5059261;28;20055;-77
2022/06/02 11:46:28;;;;;;;10.88;7.53;;;31.10;99.90;;;;;;5076069;28;20072;-77
2022/06/02 11:49:14;;;;;;;15.27;7.30;;;31.20;99.90;;;;;;5065960;28;20048;-77
2022/06/02 11:52:11;;;;;;;17.70;6.47;;;31.10;99.90;;;;;;5076910;28;20549;-74
2022/06/02 11:54:53;;;;;;;;;;;30.70;99.90;;;;;;5095013;28;20040;-77
2022/06/02 11:57:47;;;;;;;8.90;5.20;;;30.80;99.90;;;;;;5039904;28;19919;-77
2022/06/02 12:00:44;;;;;;;7.20;4.68;;;31.00;99.90;;;;;;5078491;28;20037;-77
2022/06/02 12:03:44;;;;;;;11.38;5.97;;;31.10;99.90;;;;;;5094726;28;20479;-75
2022/06/02 12:06:52;;;;;;;11.00;7.60;;;30.90;99.90;;;;;;5086434;28;20071;-77
2022/06/02 12:09:49;;;;;;;9.30;6.38;;;31.10;99.90;;;;;;5058923;28;20048;-75
2022/06/02 12:12:41;;;;;;;13.55;5.80;;;31.20;99.90;;;;;;5096136;28;20036;-78
2022/06/02 12:15:33;;;;;;;8.13;5.55;;;31.10;99.90;;;;;;5094833;28;20032;-77
2022/06/02 12:18:27;;;;;;;13.80;5.80;;;31.10;99.90;;;;;;5076616;28;20036;-77
2022/06/02 12:21:32;;;;;;;12.68;6.13;;;31.00;99.90;;;;;;5094223;28;20077;-77
2022/06/02 12:24:39;;;;;;;12.73;5.55;;;31.10;99.90;;;;;;5096960;28;20522;-76
2022/06/02 12:27:23;;;;;;;7.78;4.40;;;31.20;99.90;;;;;;5096924;28;20035;-76
2022/06/02 12:30:12;;;;;;;9.05;4.85;;;31.20;99.90;;;;;;5076068;28;20102;-75
2022/06/02 12:33:02;;;;;;;8.52;5.63;;;31.10;99.90;;;;;;5085479;28;20077;-76
2022/06/02 12:35:51;;;;;;;7.63;5.05;;;31.10;99.90;;;;;;5092061;28;20080;-76
2022/06/02 12:38:54;;;;;;;8.73;5.40;;;30.90;99.90;;;;;;5093989;28;20127;-77
2022/06/02 12:41:36;;;;;;;8.63;5.70;;;30.90;99.90;;;;;;5076750;28;20079;-77
2022/06/02 12:44:30;;;;;;;10.55;7.05;;;30.70;99.90;;;;;;5093390;28;20443;-76
2022/06/02 12:47:21;;;;;;;9.50;7.50;;;30.60;99.90;;;;;;5084786;28;20491;-77
2022/06/02 12:50:25;;;;;;;12.90;8.15;;;30.10;99.90;;;;;;5092728;28;20085;-77
2022/06/02 12:53:21;;;;;;;10.45;7.35;;;29.90;99.90;;;;;;5095004;28;20040;-77
2022/06/02 12:56:10;;;;;;;12.70;7.07;;;29.70;99.90;;;;;;5095595;28;20138;-76
2022/06/02 12:59:13;;;;;;;11.93;7.35;;;29.30;99.90;;;;;;5094859;28;20169;-77
2022/06/02 13:02:02;;;;;;;10.57;7.47;;;29.30;99.90;;;;;;5094282;28;20078;-75
2022/06/02 13:05:17;;;;;;;10.82;7.50;;;29.10;99.90;;;;;;5094187;28;20048;-76
2022/06/02 13:08:37;;;;;;;11.68;7.18;;;29.10;99.90;;;;;;4992835;28;20560;-75
2022/06/02 13:11:38;;;;;;;13.82;7.35;;;29.30;99.90;;;;;;5094800;28;20083;-76
2022/06/02 13:14:35;;;;;;;13.98;8.60;;;29.50;99.90;;;;;;5097391;28;20093;-76
2022/06/02 13:17:19;;;;;;;9.73;8.00;;;29.70;99.90;;;;;;5092269;28;20040;-74
2022/06/02 13:20:16;;;;;;;19.48;8.48;;;29.40;99.90;;;;;;5094224;28;20036;-76
2022/06/02 13:23:31;;;;;;;12.07;7.53;;;29.10;99.90;;;;;;5091522;28;20071;-75
2022/06/02 13:26:23;;;;;;;11.23;7.75;;;29.00;99.90;;;;;;4995218;28;20472;-78
2022/06/02 13:29:18;;;;;;;17.80;9.40;;;28.90;99.90;;;;;;5086029;28;20064;-77
2022/06/02 13:32:08;;;;;;;15.77;7.38;;;28.80;99.90;;;;;;5096195;28;20093;-76
2022/06/02 13:35:08;;;;;;;16.45;7.63;;;28.90;99.90;;;;;;5072227;28;20495;-77
2022/06/02 13:38:18;;;;;;;9.82;7.50;;;29.00;99.90;;;;;;5052585;28;20109;-77
2022/06/02 13:41:01;;;;;;;12.13;7.88;;;29.20;99.90;;;;;;5083523;28;20040;-76
2022/06/02 13:43:49;;;;;;;10.73;7.90;;;29.10;99.90;;;;;;5080413;28;20054;-78
2022/06/02 13:46:55;;;;;;;10.02;7.72;;;29.00;99.90;;;;;;5101630;28;20063;-78
2022/06/02 13:49:49;;;;;;;9.57;7.30;;;28.80;99.90;;;;;;5088883;28;20041;-77
2022/06/02 13:52:42;;;;;;;13.52;7.15;;;28.90;99.90;;;;;;5107648;28;20039;-76
2022/06/02 13:58:31;;;;;;;13.85;7.60;;;28.90;99.90;;;;;;5114561;28;20055;-76
2022/06/02 14:01:25;;;;;;;11.07;7.32;;;28.90;99.90;;;;;;5114148;28;20032;-76
2022/06/02 14:04:24;;;;;;;12.75;7.60;;;29.10;99.90;;;;;;5111347;28;20052;-77
2022/06/02 14:07:00;;;;;;;15.45;7.82;;;29.20;99.90;;;;;;5107039;28;20070;-76
2022/06/02 14:09:35;;;;;;;;;;;29.10;99.90;;;;;;5111296;28;20048;-76
2022/06/02 14:12:19;;;;;;;11.07;6.85;;;29.00;99.90;;;;;;5111821;28;19920;-76
2022/06/02 14:15:16;;;;;;;12.60;7.32;;;28.70;99.90;;;;;;5092859;28;20124;-75
2022/06/02 14:18:04;;;;;;;11.57;7.80;;;28.70;99.90;;;;;;5079498;28;20067;-75
2022/06/02 14:20:39;;;;;;;22.27;18.33;;;29.00;99.90;;;;;;5078409;28;20041;-76
2022/06/02 14:23:20;;;;;;;15.45;7.97;;;29.10;99.90;;;;;;5078469;28;20044;-76
2022/06/02 14:26:00;;;;;;;13.73;7.95;;;29.30;99.90;;;;;;5079782;28;20052;-75
2022/06/02 14:28:54;;;;;;;11.32;7.53;;;29.30;99.90;;;;;;5089946;28;20510;-76
2022/06/02 14:31:36;;;;;;;11.60;7.68;;;29.30;99.90;;;;;;5077671;28;20036;-75
2022/06/02 14:34:14;;;;;;;10.65;6.80;;;29.20;99.90;;;;;;5095663;28;20063;-76